Time;durP1;ratioP1;P1;durP2;ratioP2;P2;SDS_P1;SDS_P2;PMS_P1;PMS_P2;Temp;Humidity;BMP_temperature;BMP_pressure;BME280_temperature;BME280_humidity;BME280_pressure;Samples;Min_cycle;Max_cycle;Signal;HPM_P1;HPM_P2
2022/12/24 00:02:13;;;;;;;24.13;13.32;;;7.40;99.90;;;;;;5026121;28;20573;-87
2022/12/24 00:04:39;;;;;;;25.15;13.98;;;7.40;99.90;;;;;;5009689;28;20103;-86
2022/12/24 00:07:04;;;;;;;22.17;13.00;;;7.40;99.90;;;;;;4998074;28;20119;-87
2022/12/24 00:09:30;;;;;;;26.20;13.75;;;7.50;99.90;;;;;;5009355;28;20053;-86
2022/12/24 00:11:55;;;;;;;29.58;14.35;;;7.50;99.90;;;;;;5011595;28;20046;-86
2022/12/24 00:14:21;;;;;;;26.10;14.70;;;7.60;99.90;;;;;;5025255;28;20089;-86
2022/12/24 00:16:47;;;;;;;28.67;15.10;;;7.70;99.90;;;;;;5026031;28;20056;-86
2022/12/24 00:19:12;;;;;;;27.70;14.07;;;7.70;99.90;;;;;;5006533;28;20037;-85
2022/12/24 00:21:38;;;;;;;31.63;15.23;;;7.70;99.90;;;;;;5025822;28;20057;-83
2022/12/24 00:24:04;;;;;;;28.83;15.23;;;7.80;99.90;;;;;;5009451;28;20057;-86
2022/12/24 00:26:31;;;;;;;37.05;15.45;;;7.90;99.90;;;;;;5041558;28;20106;-86
2022/12/24 00:28:57;;;;;;;32.33;15.52;;;7.90;99.90;;;;;;5026586;28;20093;-86
2022/12/24 00:31:23;;;;;;;34.78;16.35;;;7.90;99.90;;;;;;5026671;28;20093;-85
2022/12/24 00:33:48;;;;;;;33.83;15.50;;;7.90;99.90;;;;;;5024118;28;20074;-85
2022/12/24 00:36:14;;;;;;;34.75;16.08;;;7.90;99.90;;;;;;5026209;28;20371;-85
2022/12/24 00:38:39;;;;;;;38.85;16.83;;;7.90;99.90;;;;;;5025450;28;20053;-85
2022/12/24 00:41:27;;;;;;;33.00;17.40;;;7.90;99.90;;;;;;5024873;28;20407;-86
2022/12/24 00:43:58;;;;;;;36.58;16.38;;;8.00;99.90;;;;;;5028094;28;20045;-86
2022/12/24 00:46:26;;;;;;;32.92;16.50;;;8.00;99.90;;;;;;5027086;28;20041;-84
2022/12/24 00:48:52;;;;;;;37.05;16.83;;;8.00;99.90;;;;;;5021608;28;20125;-85
2022/12/24 00:51:19;;;;;;;39.08;17.52;;;8.00;99.90;;;;;;5008007;28;20445;-86
2022/12/24 00:53:45;;;;;;;35.10;17.38;;;8.00;99.90;;;;;;5019612;28;20049;-86
2022/12/24 00:56:11;;;;;;;32.15;17.13;;;8.00;99.90;;;;;;5009981;28;20172;-86
2022/12/24 00:58:36;;;;;;;37.15;17.73;;;8.00;99.90;;;;;;5025166;28;20487;-86
2022/12/24 01:01:03;;;;;;;33.13;17.10;;;8.10;99.90;;;;;;5024743;28;20479;-85
2022/12/24 01:03:35;;;;;;;37.90;18.25;;;8.10;99.90;;;;;;5025997;28;20049;-84
2022/12/24 01:06:06;;;;;;;38.05;18.33;;;8.10;99.90;;;;;;5025503;28;20510;-86
2022/12/24 01:08:32;;;;;;;44.50;18.52;;;8.20;99.90;;;;;;5016893;28;20054;-85
2022/12/24 01:10:58;;;;;;;36.17;18.15;;;8.10;99.90;;;;;;5026577;28;20046;-84
2022/12/24 01:13:24;;;;;;;41.40;19.25;;;8.10;99.90;;;;;;5012335;28;20061;-86
2022/12/24 01:15:50;;;;;;;37.33;17.75;;;8.10;99.90;;;;;;5002641;28;20555;-87
2022/12/24 01:18:16;;;;;;;41.60;17.80;;;8.20;99.90;;;;;;5027093;28;20168;-85
2022/12/24 01:20:41;;;;;;;41.28;18.60;;;8.10;99.90;;;;;;5011987;28;20041;-87
2022/12/24 01:23:07;;;;;;;38.38;17.92;;;8.20;99.90;;;;;;5029220;28;20045;-85
2022/12/24 01:25:33;;;;;;;36.15;17.95;;;8.20;99.90;;;;;;5019997;28;20049;-86
2022/12/24 01:27:58;;;;;;;37.42;17.88;;;8.20;99.90;;;;;;5021081;28;20068;-86
2022/12/24 01:30:24;;;;;;;36.28;17.30;;;8.20;99.90;;;;;;5028222;28;20080;-86
2022/12/24 01:32:49;;;;;;;35.58;17.38;;;8.20;99.90;;;;;;5027972;28;20041;-84
2022/12/24 01:35:15;;;;;;;31.25;16.48;;;8.20;99.90;;;;;;5029258;28;20038;-87
2022/12/24 01:37:42;;;;;;;37.33;16.60;;;8.20;99.90;;;;;;5030393;28;20087;-84
2022/12/24 01:45:52;;;;;;;27.33;13.98;;;8.30;99.90;;;;;;5028982;28;19921;-85
2022/12/24 01:48:31;;;;;;;25.45;13.27;;;8.30;99.90;;;;;;5007729;28;20057;-87
2022/12/24 01:51:17;;;;;;;25.98;13.45;;;8.40;99.90;;;;;;5009501;28;20058;-84
2022/12/24 01:53:48;;;;;;;23.88;12.20;;;8.30;99.90;;;;;;5016337;28;20064;-86
2022/12/24 01:56:14;;;;;;;22.95;12.20;;;8.40;99.90;;;;;;5027820;28;20131;-85
2022/12/24 01:58:45;;;;;;;18.73;11.00;;;8.40;99.90;;;;;;5023358;28;20871;-87
2022/12/24 02:01:10;;;;;;;19.27;10.63;;;8.40;99.90;;;;;;5024972;28;20076;-84
2022/12/24 02:03:36;;;;;;;17.77;10.10;;;8.40;99.90;;;;;;5028140;28;20061;-85
2022/12/24 02:06:03;;;;;;;15.95;9.52;;;8.50;99.90;;;;;;5025342;28;20045;-85
2022/12/24 02:08:38;;;;;;;17.25;10.43;;;8.50;99.90;;;;;;5013406;28;20496;-86
2022/12/24 02:11:16;;;;;;;18.73;9.52;;;8.50;99.90;;;;;;5027275;28;20057;-84
2022/12/24 02:13:46;;;;;;;20.40;9.48;;;8.50;99.90;;;;;;5026702;28;20045;-84
2022/12/24 02:16:15;;;;;;;13.65;8.40;;;8.50;99.90;;;;;;5024826;28;20048;-87
2022/12/24 02:19:04;;;;;;;18.13;9.55;;;8.50;99.90;;;;;;5026701;28;20045;-86
2022/12/24 02:21:52;;;;;;;19.55;9.13;;;8.50;99.90;;;;;;5028097;28;20056;-86
2022/12/24 02:24:36;;;;;;;19.73;8.88;;;8.50;99.90;;;;;;5011395;28;20043;-85
2022/12/24 02:27:08;;;;;;;14.52;7.82;;;8.50;99.90;;;;;;5028795;28;20087;-85
2022/12/24 02:29:52;;;;;;;17.27;7.93;;;8.50;99.90;;;;;;5010921;28;20095;-85
2022/12/24 02:32:27;;;;;;;14.65;6.57;;;8.50;99.90;;;;;;5011398;28;20041;-85
2022/12/24 02:35:12;;;;;;;13.02;7.28;;;8.60;99.90;;;;;;5027320;28;20068;-84
2022/12/24 02:37:46;;;;;;;11.25;6.30;;;8.60;99.90;;;;;;5027637;28;20052;-86
2022/12/24 02:40:27;;;;;;;12.77;5.40;;;8.60;99.90;;;;;;5029522;28;20495;-86
2022/12/24 02:42:59;;;;;;;13.98;5.07;;;8.60;99.90;;;;;;5024531;28;20050;-85
2022/12/24 02:45:33;;;;;;;14.68;4.60;;;8.60;99.90;;;;;;5018023;28;20057;-86
2022/12/24 02:47:59;;;;;;;23.02;5.05;;;8.60;99.90;;;;;;5027811;28;20100;-86
2022/12/24 02:50:25;;;;;;;23.83;5.10;;;8.60;99.90;;;;;;5026410;28;20080;-86
2022/12/24 02:52:52;;;;;;;33.85;6.10;;;8.60;99.90;;;;;;5028671;28;20041;-85
2022/12/24 02:55:47;;;;;;;32.35;5.30;;;8.60;99.90;;;;;;5027730;28;20067;-86
2022/12/24 02:58:37;;;;;;;33.83;6.15;;;8.50;99.90;;;;;;5027767;28;20068;-86
2022/12/24 03:01:41;;;;;;;43.08;6.30;;;8.50;99.90;;;;;;5011357;28;20095;-84
2022/12/24 03:04:38;;;;;;;24.10;4.93;;;8.50;99.90;;;;;;5027527;28;20055;-85
2022/12/24 03:07:35;;;;;;;29.80;5.20;;;8.60;99.90;;;;;;5043290;28;20120;-85
2022/12/24 03:10:21;;;;;;;30.35;6.10;;;8.60;99.90;;;;;;5027346;28;20480;-84
2022/12/24 03:12:51;;;;;;;30.05;6.50;;;8.50;99.90;;;;;;5027052;28;20053;-84
2022/12/24 03:15:20;;;;;;;28.95;4.70;;;8.50;99.90;;;;;;5018177;28;20049;-86
2022/12/24 03:17:49;;;;;;;31.60;5.40;;;8.50;99.90;;;;;;5023813;28;20089;-84
2022/12/24 03:20:21;;;;;;;28.05;4.80;;;8.50;99.90;;;;;;5027961;28;20144;-84
2022/12/24 03:22:47;;;;;;;32.97;4.97;;;8.40;99.90;;;;;;5027267;28;20124;-86
2022/12/24 03:25:14;;;;;;;34.13;4.75;;;8.30;99.90;;;;;;5028573;28;20096;-85
2022/12/24 03:27:39;;;;;;;22.55;4.95;;;8.30;99.90;;;;;;5016952;28;20144;-84
2022/12/24 03:30:11;;;;;;;34.65;5.47;;;8.30;99.90;;;;;;5020702;28;20634;-86
2022/12/24 03:32:37;;;;;;;24.92;4.40;;;8.30;99.90;;;;;;5016808;28;20372;-85
2022/12/24 03:35:03;;;;;;;22.75;4.28;;;8.80;99.90;;;;;;5013493;28;20045;-85
2022/12/24 03:37:29;;;;;;;22.95;4.82;;;8.30;99.90;;;;;;5028460;28;20476;-84
2022/12/24 03:39:54;;;;;;;21.15;4.10;;;8.30;99.90;;;;;;5026387;28;20124;-85
2022/12/24 03:42:20;;;;;;;25.20;5.13;;;8.40;99.90;;;;;;5026041;28;20120;-84
2022/12/24 03:44:45;;;;;;;28.17;4.68;;;8.50;99.90;;;;;;5027094;28;20048;-84
2022/12/24 03:47:11;;;;;;;32.70;5.28;;;8.50;99.90;;;;;;5027804;28;20495;-85
2022/12/24 03:49:37;;;;;;;26.27;5.88;;;8.50;99.90;;;;;;5026828;28;20049;-84
2022/12/24 03:52:03;;;;;;;29.83;4.35;;;8.50;99.90;;;;;;5010173;28;20053;-85
2022/12/24 03:54:29;;;;;;;23.52;4.93;;;8.50;99.90;;;;;;5027930;28;20410;-86
2022/12/24 03:56:54;;;;;;;29.27;5.18;;;8.50;99.90;;;;;;5025614;28;20045;-84
2022/12/24 03:59:21;;;;;;;39.78;6.55;;;8.60;99.90;;;;;;5009187;28;20053;-83
2022/12/24 04:01:46;;;;;;;21.85;5.20;;;8.50;99.90;;;;;;5030560;28;20124;-84
2022/12/24 04:04:12;;;;;;;26.27;5.28;;;8.50;99.90;;;;;;5043206;28;20049;-85
2022/12/24 04:06:37;;;;;;;31.10;5.72;;;8.50;99.90;;;;;;5009277;28;20507;-85
2022/12/24 04:09:04;;;;;;;25.98;4.35;;;8.50;99.90;;;;;;5026299;28;20415;-85
2022/12/24 04:11:31;;;;;;;36.92;5.43;;;8.50;99.90;;;;;;5014913;28;20088;-86
2022/12/24 04:13:57;;;;;;;25.33;5.80;;;8.50;99.90;;;;;;5024430;28;20147;-85
2022/12/24 04:16:22;;;;;;;33.30;5.68;;;8.50;99.90;;;;;;5018692;28;20057;-84
2022/12/24 04:18:48;;;;;;;33.33;5.78;;;8.50;99.90;;;;;;5027584;28;20100;-85
2022/12/24 04:21:14;;;;;;;25.83;5.30;;;8.50;99.90;;;;;;5025569;28;20545;-83
2022/12/24 04:23:41;;;;;;;29.35;4.80;;;8.40;99.90;;;;;;5004002;28;20053;-84
2022/12/24 04:26:08;;;;;;;37.90;5.22;;;8.50;99.90;;;;;;5020763;28;20057;-84
2022/12/24 04:28:34;;;;;;;34.08;6.07;;;8.40;99.90;;;;;;5024934;28;20057;-86
2022/12/24 04:31:02;;;;;;;28.92;5.38;;;8.40;99.90;;;;;;5018965;28;20099;-84
2022/12/24 04:33:28;;;;;;;31.70;5.82;;;8.40;99.90;;;;;;5026556;28;20183;-83
2022/12/24 04:35:57;;;;;;;29.58;5.30;;;8.30;99.90;;;;;;5026931;28;20057;-85
2022/12/24 04:38:22;;;;;;;27.55;4.47;;;8.20;99.90;;;;;;5009681;28;20045;-86
2022/12/24 04:40:48;;;;;;;40.30;6.57;;;8.20;99.90;;;;;;5024454;28;20041;-84
2022/12/24 04:43:15;;;;;;;35.22;5.68;;;8.10;99.90;;;;;;5015375;28;20069;-83
2022/12/24 04:45:42;;;;;;;34.72;6.00;;;8.10;99.90;;;;;;5025645;28;20549;-86
2022/12/24 04:48:08;;;;;;;35.65;5.97;;;8.10;99.90;;;;;;5010162;28;20045;-83
2022/12/24 04:50:33;;;;;;;33.05;4.80;;;8.20;99.90;;;;;;5029614;28;20068;-83
2022/12/24 04:52:59;;;;;;;37.83;6.20;;;8.20;99.90;;;;;;5019996;28;20111;-84
2022/12/24 04:55:24;;;;;;;38.28;6.25;;;8.20;99.90;;;;;;5019859;28;20070;-86
2022/12/24 04:57:50;;;;;;;29.48;6.45;;;8.20;99.90;;;;;;5026665;28;20047;-84
2022/12/24 05:00:16;;;;;;;33.53;6.05;;;8.30;99.90;;;;;;5027513;28;20102;-86
2022/12/24 05:02:42;;;;;;;29.35;6.20;;;8.30;99.90;;;;;;5016654;28;20129;-89
2022/12/24 05:05:08;;;;;;;33.63;5.50;;;8.20;99.90;;;;;;5022782;28;20125;-84
2022/12/24 05:07:34;;;;;;;33.28;6.40;;;8.30;99.90;;;;;;5011333;28;20172;-85
2022/12/24 05:09:59;;;;;;;35.13;5.53;;;8.30;99.90;;;;;;5025398;28;20136;-86
2022/12/24 05:12:25;;;;;;;28.08;5.70;;;8.30;99.90;;;;;;5029985;28;20115;-84
2022/12/24 05:14:50;;;;;;;27.67;5.80;;;8.30;99.90;;;;;;5026614;28;20053;-85
2022/12/24 05:17:16;;;;;;;29.30;5.80;;;8.30;99.90;;;;;;5029746;28;20132;-85
2022/12/24 05:19:41;;;;;;;28.45;5.68;;;8.40;99.90;;;;;;5028860;28;20510;-83
2022/12/24 05:27:36;;;;;;;29.15;5.72;;;8.50;99.90;;;;;;5030602;28;20049;-84
2022/12/24 05:30:01;;;;;;;30.77;5.30;;;8.50;99.90;;;;;;5019677;28;20101;-83
2022/12/24 05:32:27;;;;;;;39.60;7.03;;;8.50;99.90;;;;;;5010833;28;20057;-83
2022/12/24 05:34:53;;;;;;;33.53;6.57;;;8.50;99.90;;;;;;5016670;28;20042;-83
2022/12/24 05:37:18;;;;;;;36.63;5.35;;;8.50;99.90;;;;;;5029495;28;20435;-86
2022/12/24 05:39:44;;;;;;;31.55;5.75;;;8.50;99.90;;;;;;5027666;28;20052;-86
2022/12/24 05:42:09;;;;;;;33.42;6.65;;;8.50;99.90;;;;;;5028552;28;20041;-84
2022/12/24 05:44:36;;;;;;;35.20;5.50;;;8.50;99.90;;;;;;5027931;28;20045;-86
2022/12/24 05:47:01;;;;;;;36.72;5.47;;;8.60;99.90;;;;;;5029821;28;20148;-85
2022/12/24 05:49:27;;;;;;;29.90;5.47;;;8.60;99.90;;;;;;5027634;28;20152;-85
2022/12/24 05:51:53;;;;;;;39.65;5.70;;;8.60;99.90;;;;;;5028333;28;20049;-85
2022/12/24 05:54:18;;;;;;;31.33;6.20;;;8.60;99.90;;;;;;5012429;28;20052;-85
2022/12/24 05:56:44;;;;;;;35.80;6.60;;;8.60;99.90;;;;;;5027338;28;20037;-86
2022/12/24 05:59:09;;;;;;;32.95;6.38;;;8.60;99.90;;;;;;5028096;28;20099;-84
2022/12/24 06:01:35;;;;;;;38.05;5.85;;;8.60;99.90;;;;;;5028744;28;20104;-85
2022/12/24 06:04:01;;;;;;;28.88;5.45;;;8.60;99.90;;;;;;5030348;28;20054;-84
2022/12/24 06:06:27;;;;;;;38.03;6.38;;;8.60;99.90;;;;;;5039403;28;20125;-86
2022/12/24 06:08:54;;;;;;;44.10;7.65;;;8.60;99.90;;;;;;5010920;28;20057;-85
2022/12/24 06:11:24;;;;;;;37.53;7.38;;;8.70;99.90;;;;;;5013890;28;20092;-85
2022/12/24 06:13:51;;;;;;;40.92;6.85;;;8.70;99.90;;;;;;5011586;28;20060;-84
2022/12/24 06:16:18;;;;;;;30.85;7.25;;;8.60;99.90;;;;;;5028134;28;20050;-85
2022/12/24 06:18:44;;;;;;;33.55;6.50;;;8.60;99.90;;;;;;5028342;28;20056;-86
2022/12/24 06:21:11;;;;;;;42.90;7.40;;;8.70;99.90;;;;;;5029927;28;20041;-86
2022/12/24 06:23:40;;;;;;;35.80;6.32;;;8.70;99.90;;;;;;5027834;28;20046;-83
2022/12/24 06:26:07;;;;;;;33.17;5.70;;;8.70;99.90;;;;;;5012586;28;20045;-84
2022/12/24 06:28:35;;;;;;;31.65;6.22;;;8.70;99.90;;;;;;5025566;28;20132;-86
2022/12/24 06:31:02;;;;;;;32.55;6.50;;;8.70;99.90;;;;;;5026283;28;20084;-86
2022/12/24 06:33:29;;;;;;;36.35;7.00;;;8.70;99.90;;;;;;5009613;28;20050;-85
2022/12/24 06:35:54;;;;;;;32.50;6.18;;;8.60;99.90;;;;;;5008749;28;20042;-85
2022/12/24 06:38:20;;;;;;;37.53;6.88;;;8.70;99.90;;;;;;5025471;28;20038;-86
2022/12/24 06:40:46;;;;;;;32.92;7.70;;;8.70;99.90;;;;;;5016625;28;20061;-86
2022/12/24 06:43:12;;;;;;;30.88;5.40;;;8.70;99.90;;;;;;5008685;28;20076;-84
2022/12/24 06:45:39;;;;;;;33.08;6.00;;;8.70;99.90;;;;;;5010165;28;20504;-87
2022/12/24 06:48:05;;;;;;;35.85;5.68;;;8.70;99.90;;;;;;5014834;28;20060;-86
2022/12/24 06:50:32;;;;;;;34.08;6.53;;;8.70;99.90;;;;;;5019406;28;20423;-87
2022/12/24 06:52:58;;;;;;;28.27;6.68;;;8.70;99.90;;;;;;5027193;28;20156;-87
2022/12/24 06:55:24;;;;;;;29.50;6.18;;;8.70;99.90;;;;;;5029718;28;20187;-87
2022/12/24 06:57:49;;;;;;;35.75;7.25;;;8.70;99.90;;;;;;5028674;28;20120;-85
2022/12/24 07:00:16;;;;;;;43.00;7.72;;;8.70;99.90;;;;;;5029781;28;20041;-87
2022/12/24 07:02:42;;;;;;;40.25;6.82;;;8.70;99.90;;;;;;5012671;28;20131;-87
2022/12/24 07:05:12;;;;;;;30.33;7.05;;;9.00;99.90;;;;;;5027691;28;20420;-86
2022/12/24 07:07:40;;;;;;;28.73;6.93;;;8.70;99.90;;;;;;5011250;28;20054;-86
2022/12/24 07:10:07;;;;;;;31.08;5.85;;;8.70;99.90;;;;;;5008735;28;20485;-86
2022/12/24 07:12:33;;;;;;;31.90;6.88;;;8.70;99.90;;;;;;5009707;28;20046;-88
2022/12/24 07:14:59;;;;;;;34.20;6.28;;;8.70;99.90;;;;;;5008117;28;20617;-87
2022/12/24 07:17:24;;;;;;;31.63;6.40;;;8.70;99.90;;;;;;5013600;28;20045;-86
2022/12/24 07:19:50;;;;;;;27.90;5.25;;;8.70;99.90;;;;;;5019585;28;20080;-85
2022/12/24 07:22:15;;;;;;;23.33;6.75;;;8.70;99.90;;;;;;5028462;28;20499;-86
2022/12/24 07:24:41;;;;;;;25.02;4.95;;;8.70;99.90;;;;;;5027617;28;20067;-85
2022/12/24 07:27:07;;;;;;;34.85;6.30;;;8.70;99.90;;;;;;5026353;28;20099;-85
2022/12/24 07:29:33;;;;;;;28.17;4.72;;;8.70;99.90;;;;;;5010214;28;20103;-86
2022/12/24 07:31:59;;;;;;;24.50;6.18;;;8.70;99.90;;;;;;5016814;28;20049;-86
2022/12/24 07:34:25;;;;;;;25.42;4.75;;;8.60;99.90;;;;;;5016354;28;20041;-85
2022/12/24 07:36:50;;;;;;;22.23;5.97;;;8.60;99.90;;;;;;5027866;28;20048;-83
2022/12/24 07:39:16;;;;;;;27.77;5.72;;;8.50;99.90;;;;;;5027583;28;20095;-84
2022/12/24 07:41:42;;;;;;;22.98;5.47;;;8.50;99.90;;;;;;5026712;28;20162;-83
2022/12/24 07:44:12;;;;;;;25.63;6.20;;;8.60;99.90;;;;;;5007233;28;20064;-84
2022/12/24 07:46:37;;;;;;;33.80;5.47;;;8.60;99.90;;;;;;5008497;28;20492;-83
2022/12/24 07:49:05;;;;;;;27.30;5.30;;;8.60;99.90;;;;;;5016302;28;20052;-84
2022/12/24 07:51:49;;;;;;;24.00;5.53;;;8.60;99.90;;;;;;5015496;28;20077;-84
2022/12/24 07:54:15;;;;;;;30.67;6.30;;;8.60;99.90;;;;;;5006752;28;20061;-85
2022/12/24 07:56:41;;;;;;;31.85;6.57;;;8.60;99.90;;;;;;5007784;28;20046;-83
2022/12/24 07:59:09;;;;;;;28.17;4.90;;;8.60;99.90;;;;;;5026354;28;20132;-85
2022/12/24 08:01:34;;;;;;;29.40;5.65;;;8.60;99.90;;;;;;5026635;28;20057;-84
2022/12/24 08:04:00;;;;;;;36.47;6.43;;;8.50;99.90;;;;;;5010687;28;20041;-83
2022/12/24 08:06:26;;;;;;;35.83;6.28;;;8.20;99.90;;;;;;5009784;28;20045;-85
2022/12/24 08:08:51;;;;;;;23.55;4.30;;;8.60;99.90;;;;;;5026184;28;20083;-87
2022/12/24 08:11:17;;;;;;;28.30;5.15;;;8.60;99.90;;;;;;5009818;28;21076;-83
2022/12/24 08:13:42;;;;;;;23.50;5.28;;;8.60;99.90;;;;;;5026917;28;20060;-85
2022/12/24 08:16:08;;;;;;;28.00;5.30;;;8.60;99.90;;;;;;5009785;28;20457;-84
2022/12/24 08:18:34;;;;;;;31.38;5.03;;;8.60;99.90;;;;;;5026493;28;20733;-80
2022/12/24 08:20:59;;;;;;;29.38;6.35;;;8.60;99.90;;;;;;5027658;28;20041;-79
2022/12/24 08:23:25;;;;;;;23.20;5.15;;;8.60;99.90;;;;;;5027553;28;20048;-86
2022/12/24 08:25:50;;;;;;;22.27;4.80;;;8.10;99.90;;;;;;5012936;28;20045;-87
2022/12/24 08:28:20;;;;;;;27.90;6.65;;;8.10;99.90;;;;;;5019278;28;20093;-87
2022/12/24 08:30:48;;;;;;;29.33;6.15;;;9.20;99.90;;;;;;5010723;28;20049;-85
2022/12/24 08:33:14;;;;;;;38.90;6.00;;;8.80;99.90;;;;;;5010844;28;20046;-84
2022/12/24 08:35:39;;;;;;;29.40;4.75;;;8.90;99.90;;;;;;5010343;28;20372;-85
2022/12/24 08:38:05;;;;;;;34.42;5.68;;;7.40;99.90;;;;;;5010914;28;20095;-84
2022/12/24 08:40:31;;;;;;;25.90;5.53;;;8.60;99.90;;;;;;4993878;28;20045;-85
2022/12/24 08:42:56;;;;;;;27.92;5.30;;;8.80;99.90;;;;;;5018597;28;20053;-86
2022/12/24 08:45:24;;;;;;;29.48;5.57;;;8.20;99.90;;;;;;5017788;28;20046;-83
2022/12/24 08:47:50;;;;;;;28.88;6.68;;;8.70;99.90;;;;;;5010999;28;20046;-83
2022/12/24 08:50:15;;;;;;;38.03;6.68;;;8.70;99.90;;;;;;5011957;28;20050;-82
2022/12/24 08:52:41;;;;;;;30.10;5.95;;;8.90;99.90;;;;;;5010250;28;20046;-83
2022/12/24 08:55:07;;;;;;;32.25;6.72;;;8.80;99.90;;;;;;5011971;28;20058;-83
2022/12/24 08:57:36;;;;;;;35.47;6.28;;;8.90;99.90;;;;;;5015894;28;20050;-85
2022/12/24 09:00:03;;;;;;;29.75;5.93;;;8.80;99.90;;;;;;5011972;28;20045;-83
2022/12/24 09:02:29;;;;;;;35.85;7.93;;;9.40;99.90;;;;;;5029443;28;20123;-82
2022/12/24 09:04:55;;;;;;;26.90;6.07;;;8.60;99.90;;;;;;5029987;28;20049;-86
2022/12/24 09:07:20;;;;;;;37.28;7.28;;;8.20;99.90;;;;;;5024101;28;20557;-84
2022/12/24 09:09:46;;;;;;;31.40;7.18;;;8.90;99.90;;;;;;5028751;28;20041;-83
2022/12/24 09:12:12;;;;;;;32.95;7.10;;;8.60;99.90;;;;;;5018634;28;20046;-83
2022/12/24 09:14:38;;;;;;;32.05;7.07;;;8.90;99.90;;;;;;5021172;28;20034;-82
2022/12/24 09:17:04;;;;;;;29.75;6.60;;;8.90;99.90;;;;;;5016439;28;20042;-82
2022/12/24 09:19:29;;;;;;;31.73;6.57;;;9.00;99.90;;;;;;5017391;28;20054;-82
2022/12/24 09:21:55;;;;;;;29.33;6.85;;;8.70;99.90;;;;;;5022339;28;20416;-81
2022/12/24 09:24:20;;;;;;;30.75;6.07;;;8.70;99.90;;;;;;5018925;28;20124;-81
2022/12/24 09:26:48;;;;;;;36.75;7.63;;;9.00;99.90;;;;;;5018823;28;20069;-83
2022/12/24 09:29:14;;;;;;;44.70;7.47;;;9.20;99.90;;;;;;5013341;28;20085;-82
2022/12/24 09:31:40;;;;;;;35.85;7.70;;;9.10;99.90;;;;;;5025995;28;20064;-82
2022/12/24 09:34:06;;;;;;;26.40;6.25;;;9.30;99.90;;;;;;5029196;28;20049;-83
2022/12/24 09:36:33;;;;;;;35.78;7.43;;;8.50;99.90;;;;;;5027196;28;20083;-83
2022/12/24 09:38:58;;;;;;;33.78;6.60;;;9.20;99.90;;;;;;5011519;28;20148;-84
2022/12/24 09:41:41;;;;;;;34.60;7.22;;;9.30;99.90;;;;;;5010755;28;20412;-80
2022/12/24 09:44:28;;;;;;;37.80;7.78;;;9.30;99.90;;;;;;5012393;28;20061;-82
2022/12/24 09:46:55;;;;;;;29.63;6.43;;;9.30;99.90;;;;;;5015788;28;20046;-83
2022/12/24 09:49:31;;;;;;;34.60;6.95;;;9.40;99.90;;;;;;5010939;28;20057;-82
2022/12/24 09:52:03;;;;;;;28.15;6.00;;;9.20;99.90;;;;;;5017332;28;20038;-82
2022/12/24 09:54:33;;;;;;;25.95;5.22;;;9.20;99.90;;;;;;5013206;28;20054;-82
2022/12/24 09:57:32;;;;;;;28.00;5.95;;;9.20;99.90;;;;;;5030016;28;20533;-83
2022/12/24 09:59:58;;;;;;;28.27;5.25;;;9.20;99.90;;;;;;5027616;28;20111;-84
2022/12/24 10:02:24;;;;;;;27.48;5.22;;;9.20;99.90;;;;;;5029686;28;20057;-83
2022/12/24 10:04:50;;;;;;;22.70;4.97;;;9.10;99.90;;;;;;5011571;28;20049;-82
2022/12/24 10:07:24;;;;;;;26.77;5.43;;;9.10;99.90;;;;;;5028808;28;20041;-83
2022/12/24 10:10:12;;;;;;;30.50;5.90;;;9.40;99.90;;;;;;5030371;28;20045;-83
2022/12/24 10:12:47;;;;;;;29.70;5.57;;;9.30;99.90;;;;;;5011840;28;20152;-83
2022/12/24 10:15:21;;;;;;;27.73;5.30;;;9.30;99.90;;;;;;5013781;28;20096;-83
2022/12/24 10:18:33;;;;;;;42.95;8.80;;;9.50;99.90;;;;;;5014256;28;20053;-84
2022/12/24 10:21:21;;;;;;;26.42;4.13;;;9.40;99.90;;;;;;5017408;28;20065;-84
2022/12/24 10:24:05;;;;;;;21.50;4.55;;;9.40;99.90;;;;;;5028363;28;20061;-83
2022/12/24 10:26:49;;;;;;;22.40;4.93;;;9.40;99.90;;;;;;5027555;28;20154;-83
2022/12/24 10:29:34;;;;;;;23.48;5.35;;;9.70;99.90;;;;;;5011923;28;20399;-82
2022/12/24 10:32:16;;;;;;;26.92;4.97;;;9.50;99.90;;;;;;5029709;28;20499;-81
2022/12/24 10:34:56;;;;;;;25.47;5.23;;;9.50;99.90;;;;;;5027544;28;20057;-83
2022/12/24 10:37:24;;;;;;;20.65;4.43;;;9.50;99.90;;;;;;5012528;28;20045;-81
2022/12/24 10:39:50;;;;;;;20.05;4.22;;;9.50;99.90;;;;;;5008867;28;20049;-81
2022/12/24 10:42:17;;;;;;;27.20;5.18;;;9.60;99.90;;;;;;5029064;28;20124;-82
2022/12/24 10:44:48;;;;;;;23.92;4.22;;;9.60;99.90;;;;;;5029025;28;20042;-82
2022/12/24 10:47:16;;;;;;;27.33;5.28;;;9.60;99.90;;;;;;5008859;28;20081;-83
2022/12/24 10:49:51;;;;;;;24.63;5.60;;;9.60;99.90;;;;;;5009573;28;20065;-83
2022/12/24 10:52:21;;;;;;;30.50;7.18;;;9.70;99.90;;;;;;5024900;28;20144;-81
2022/12/24 10:55:10;;;;;;;24.70;6.57;;;9.60;99.90;;;;;;5029338;28;20411;-81
2022/12/24 10:57:37;;;;;;;22.42;5.28;;;9.70;99.90;;;;;;5028907;28;20208;-81
2022/12/24 11:00:05;;;;;;;25.52;5.40;;;9.70;99.90;;;;;;5023243;28;20087;-83
2022/12/24 11:02:32;;;;;;;24.95;6.43;;;9.70;99.90;;;;;;5023896;28;20049;-82
2022/12/24 11:04:59;;;;;;;27.85;5.90;;;9.70;99.90;;;;;;5028944;28;20486;-83
2022/12/24 11:07:28;;;;;;;25.08;7.13;;;9.60;99.90;;;;;;5023032;28;20037;-82
2022/12/24 11:10:02;;;;;;;27.42;6.40;;;9.60;99.90;;;;;;5019530;28;20128;-83
2022/12/24 11:12:35;;;;;;;35.70;7.78;;;9.70;99.90;;;;;;5026665;28;20087;-82
2022/12/24 11:15:16;;;;;;;32.28;6.50;;;9.60;99.90;;;;;;5028298;28;20744;-81
2022/12/24 11:17:52;;;;;;;25.35;5.97;;;9.60;99.90;;;;;;5027851;28;20054;-81
2022/12/24 11:20:22;;;;;;;28.95;7.30;;;9.60;99.90;;;;;;5027526;28;20048;-82
2022/12/24 11:22:49;;;;;;;27.95;7.07;;;9.60;99.90;;;;;;5026454;28;20153;-81
2022/12/24 11:25:22;;;;;;;29.25;7.78;;;9.60;99.90;;;;;;5025335;28;20084;-83
2022/12/24 11:27:49;;;;;;;23.90;6.13;;;9.50;99.90;;;;;;5026251;28;20464;-82
2022/12/24 11:30:14;;;;;;;33.25;7.00;;;9.50;99.90;;;;;;5009177;28;20221;-80
2022/12/24 11:33:00;;;;;;;28.88;5.72;;;9.50;99.90;;;;;;5015441;28;20140;-83
2022/12/24 11:35:28;;;;;;;31.25;5.72;;;9.50;99.90;;;;;;5023487;28;20092;-81
2022/12/24 11:38:00;;;;;;;24.30;6.38;;;9.50;99.90;;;;;;5009020;28;20061;-81
2022/12/24 11:40:38;;;;;;;30.00;6.10;;;9.60;99.90;;;;;;5017847;28;20041;-82
2022/12/24 11:43:14;;;;;;;29.30;6.68;;;9.60;99.90;;;;;;5012711;28;20204;-82
2022/12/24 11:45:53;;;;;;;29.30;6.07;;;9.60;99.90;;;;;;5008681;28;20042;-81
2022/12/24 11:48:29;;;;;;;26.77;5.60;;;9.60;99.90;;;;;;5019016;28;20498;-82
2022/12/24 11:51:03;;;;;;;28.13;5.80;;;9.60;99.90;;;;;;5026059;28;20147;-82
2022/12/24 11:53:57;;;;;;;29.52;6.25;;;9.70;99.90;;;;;;5027834;28;20487;-82
2022/12/24 11:56:45;;;;;;;29.35;5.15;;;9.60;99.90;;;;;;5017983;28;20491;-82
2022/12/24 11:59:17;;;;;;;26.60;5.72;;;9.70;99.90;;;;;;5024521;28;20100;-82
2022/12/24 12:01:56;;;;;;;25.35;6.00;;;9.70;99.90;;;;;;5026686;28;20102;-83
2022/12/24 12:04:28;;;;;;;22.42;4.97;;;9.70;99.90;;;;;;5025844;28;20408;-83
2022/12/24 12:07:09;;;;;;;24.40;5.25;;;9.80;99.90;;;;;;5025149;28;20906;-82
2022/12/24 12:09:46;;;;;;;27.65;5.40;;;9.80;99.90;;;;;;5028116;28;20429;-84
2022/12/24 12:12:17;;;;;;;26.10;6.03;;;9.80;99.90;;;;;;5025813;28;20046;-81
2022/12/24 12:14:50;;;;;;;22.10;5.47;;;9.80;99.90;;;;;;5023810;28;20105;-81
2022/12/24 12:17:18;;;;;;;19.98;5.53;;;9.80;99.90;;;;;;5017352;28;20034;-80
2022/12/24 12:19:51;;;;;;;24.70;5.03;;;9.80;99.90;;;;;;5007651;28;20042;-81
2022/12/24 12:22:46;;;;;;;28.13;4.63;;;9.80;99.90;;;;;;5007497;28;20050;-81
2022/12/24 12:25:26;;;;;;;22.88;4.40;;;9.80;99.90;;;;;;5007183;28;20050;-81
2022/12/24 12:27:55;;;;;;;27.15;4.80;;;9.80;99.90;;;;;;5021988;28;20352;-81
2022/12/24 12:30:23;;;;;;;18.60;4.68;;;9.90;99.90;;;;;;5027715;28;20045;-81
2022/12/24 12:33:21;;;;;;;21.67;4.10;;;9.90;99.90;;;;;;5027013;28;20099;-82
2022/12/24 12:35:49;;;;;;;16.75;4.25;;;9.90;99.90;;;;;;5026207;28;20131;-81
2022/12/24 12:38:19;;;;;;;19.00;4.60;;;10.50;99.90;;;;;;5027618;28;20037;-80
2022/12/24 12:40:48;;;;;;;20.83;4.55;;;9.90;99.90;;;;;;5026044;28;20061;-79
2022/12/24 12:43:37;;;;;;;18.33;4.25;;;9.90;99.90;;;;;;5024955;28;20092;-81
2022/12/24 12:46:17;;;;;;;16.15;3.67;;;9.80;99.90;;;;;;5025121;28;20107;-81
2022/12/24 12:49:24;;;;;;;22.77;5.88;;;9.70;99.90;;;;;;5026241;28;20049;-81
2022/12/24 12:52:18;;;;;;;23.75;4.88;;;9.70;99.90;;;;;;5023346;28;20052;-81
2022/12/24 12:55:15;;;;;;;20.58;4.35;;;9.60;99.90;;;;;;5026151;28;20180;-80
2022/12/24 12:57:41;;;;;;;23.90;5.03;;;9.70;99.90;;;;;;5004285;28;20050;-81
2022/12/24 13:00:10;;;;;;;16.23;3.97;;;9.70;99.90;;;;;;5010776;28;20459;-81
2022/12/24 13:03:18;;;;;;;24.98;4.78;;;9.70;99.90;;;;;;5023259;28;20069;-83
2022/12/24 13:06:21;;;;;;;18.35;4.78;;;9.80;99.90;;;;;;5027648;28;20041;-81
2022/12/24 13:09:30;;;;;;;18.33;4.43;;;9.80;99.90;;;;;;5026121;28;20053;-83
2022/12/24 13:12:32;;;;;;;27.10;4.95;;;9.70;99.90;;;;;;5031120;28;20041;-83
2022/12/24 13:15:12;;;;;;;18.30;3.85;;;9.80;99.90;;;;;;5030442;28;20415;-83